Time;durP1;ratioP1;P1;durP2;ratioP2;P2;SDS_P1;SDS_P2;PMS_P1;PMS_P2;Temp;Humidity;BMP_temperature;BMP_pressure;BME280_temperature;BME280_humidity;BME280_pressure;Samples;Min_cycle;Max_cycle;Signal;HPM_P1;HPM_P2
2023/02/16 00:02:04;;;;;;;19.17;11.43;;;3.80;45.10;;;;;;10397128;28;20709;-73
2023/02/16 00:07:08;;;;;;;35.90;11.50;;;3.70;45.80;;;;;;10393060;28;20233;-73
2023/02/16 00:17:39;;;;;;;12.70;11.13;;;3.60;45.60;;;;;;10391773;28;20737;-72
2023/02/16 00:22:42;;;;;;;17.40;12.47;;;3.70;45.30;;;;;;10389229;28;20217;-73
2023/02/16 00:27:47;;;;;;;26.30;12.10;;;3.70;45.50;;;;;;10396226;28;20604;-73
2023/02/16 00:32:50;;;;;;;19.67;12.57;;;3.70;45.40;;;;;;10394503;28;20237;-73
2023/02/16 00:37:53;;;;;;;37.57;12.57;;;3.60;45.10;;;;;;10399113;28;20238;-73
2023/02/16 00:42:58;;;;;;;13.53;11.83;;;3.60;45.20;;;;;;10386056;28;20218;-73
2023/02/16 00:48:01;;;;;;;12.50;11.20;;;3.50;45.20;;;;;;10390984;28;20233;-73
2023/02/16 00:53:04;;;;;;;12.90;11.43;;;3.40;45.40;;;;;;10394969;28;20697;-73
2023/02/16 00:58:16;;;;;;;12.37;11.17;;;3.50;45.70;;;;;;10391333;28;20234;-73
2023/02/16 01:03:22;;;;;;;15.67;11.77;;;3.50;45.90;;;;;;10392195;28;20249;-73
2023/02/16 01:13:50;;;;;;;25.63;11.33;;;3.60;45.40;;;;;;10393939;28;20225;-73
2023/02/16 01:18:53;;;;;;;22.57;10.97;;;3.60;45.20;;;;;;10396216;28;20231;-74
2023/02/16 01:23:56;;;;;;;11.20;10.10;;;3.60;45.20;;;;;;10387989;28;20304;-74
2023/02/16 01:29:01;;;;;;;48.20;11.63;;;3.50;45.20;;;;;;10393795;28;20229;-74
2023/02/16 01:34:04;;;;;;;10.43;9.43;;;3.50;45.20;;;;;;10382832;28;20636;-73
2023/02/16 01:39:11;;;;;;;10.13;9.13;;;3.50;45.50;;;;;;10390381;28;20234;-73
2023/02/16 01:44:20;;;;;;;14.97;11.53;;;3.60;45.70;;;;;;10387307;28;20236;-74
2023/02/16 01:49:24;;;;;;;25.00;10.73;;;3.60;45.60;;;;;;10389346;28;20244;-74
2023/02/16 01:54:38;;;;;;;12.80;10.27;;;3.60;45.40;;;;;;10394934;28;20244;-74
2023/02/16 02:00:04;;;;;;;35.43;10.90;;;3.60;45.60;;;;;;10388260;28;20737;-74
2023/02/16 02:10:45;;;;;;;10.93;9.93;;;3.60;45.00;;;;;;10385067;28;20240;-74
2023/02/16 02:15:50;;;;;;;12.50;10.43;;;3.60;45.30;;;;;;10386806;28;20237;-74
2023/02/16 02:26:44;;;;;;;9.60;8.70;;;3.60;45.50;;;;;;10382345;28;20234;-74
2023/02/16 02:31:53;;;;;;;45.70;10.77;;;3.60;45.80;;;;;;10386620;28;20631;-74
2023/02/16 02:37:05;;;;;;;25.80;11.00;;;3.60;45.30;;;;;;10392614;28;20241;-74
2023/02/16 02:42:18;;;;;;;50.53;10.83;;;3.60;45.00;;;;;;10392158;28;20244;-74
2023/02/16 02:47:21;;;;;;;31.30;9.83;;;3.60;45.00;;;;;;10401685;28;20234;-74
2023/02/16 02:52:24;;;;;;;38.10;9.77;;;3.40;44.80;;;;;;10397071;28;20704;-74
2023/02/16 03:03:18;;;;;;;56.97;10.67;;;3.30;45.60;;;;;;10267568;28;20685;-74
2023/02/16 03:08:25;;;;;;;44.27;10.40;;;3.30;45.40;;;;;;10360818;28;20812;-74
2023/02/16 03:13:33;;;;;;;61.40;11.13;;;3.30;45.20;;;;;;10388754;28;20234;-74
2023/02/16 03:29:26;;;;;;;12.07;9.90;;;3.30;45.60;;;;;;10399810;28;20230;-74
2023/02/16 03:34:30;;;;;;;11.53;9.27;;;3.30;45.80;;;;;;10391543;28;20238;-74
2023/02/16 03:40:26;;;;;;;12.03;9.37;;;3.40;45.70;;;;;;10395175;28;20753;-74
2023/02/16 03:44:59;;;;;;;10.00;9.07;;;3.40;45.30;;;;;;10391125;28;20245;-74
2023/02/16 03:50:02;;;;;;;61.93;11.40;;;3.40;45.40;;;;;;10396444;28;20238;-73
2023/02/16 03:55:05;;;;;;;69.33;11.13;;;3.40;45.30;;;;;;10393991;28;20237;-74
2023/02/16 04:00:11;;;;;;;17.57;11.03;;;3.30;45.20;;;;;;10395464;28;20626;-74
2023/02/16 04:05:14;;;;;;;10.97;9.87;;;3.30;45.60;;;;;;10395406;28;20237;-74
2023/02/16 04:10:18;;;;;;;37.97;10.33;;;3.40;45.70;;;;;;10392591;28;20857;-74
2023/02/16 04:15:25;;;;;;;13.97;9.73;;;3.20;45.60;;;;;;10393622;28;20656;-74
2023/02/16 04:20:30;;;;;;;50.27;10.40;;;3.20;45.60;;;;;;10391130;28;20253;-74
2023/02/16 04:25:33;;;;;;;28.70;10.23;;;3.30;45.60;;;;;;10391496;28;20233;-74
2023/02/16 04:30:38;;;;;;;10.10;8.70;;;3.20;45.40;;;;;;10392958;28;20304;-74
2023/02/16 04:35:41;;;;;;;12.53;9.73;;;3.20;45.60;;;;;;10395868;28;20229;-74
2023/02/16 04:40:44;;;;;;;10.67;9.67;;;3.10;45.70;;;;;;10389314;28;20233;-74
2023/02/16 04:45:48;;;;;;;25.97;10.30;;;3.20;45.90;;;;;;10403127;28;20709;-75
2023/02/16 04:50:52;;;;;;;12.63;9.60;;;3.10;45.80;;;;;;10389837;28;20683;-75
2023/02/16 04:55:55;;;;;;;22.70;10.27;;;3.10;45.80;;;;;;10390591;28;20359;-75
2023/02/16 05:00:59;;;;;;;21.33;10.07;;;3.20;45.80;;;;;;10391965;28;20604;-75
2023/02/16 05:06:02;;;;;;;11.13;10.03;;;3.10;45.90;;;;;;10391238;28;20240;-74
2023/02/16 05:16:28;;;;;;;11.40;10.30;;;3.10;45.60;;;;;;10388523;28;20241;-74
2023/02/16 05:21:31;;;;;;;12.40;10.03;;;3.00;45.80;;;;;;10393160;28;20709;-75
2023/02/16 05:26:35;;;;;;;19.13;9.50;;;3.10;45.90;;;;;;10405236;28;20279;-74
2023/02/16 05:31:39;;;;;;;17.40;8.97;;;3.00;45.80;;;;;;10389965;28;20627;-74
2023/02/16 05:36:43;;;;;;;10.43;9.30;;;3.00;45.90;;;;;;10394091;28;20232;-74
2023/02/16 05:41:46;;;;;;;10.97;9.53;;;3.00;45.70;;;;;;10385637;28;20241;-74
2023/02/16 05:46:50;;;;;;;26.63;14.63;;;3.20;45.90;;;;;;10386804;28;20233;-75
2023/02/16 05:51:54;;;;;;;10.23;9.23;;;3.00;45.90;;;;;;10379117;28;20235;-74
2023/02/16 05:56:57;;;;;;;16.47;9.97;;;3.00;45.70;;;;;;10385014;28;20238;-72
2023/02/16 06:02:01;;;;;;;15.40;10.00;;;3.00;45.40;;;;;;10392686;28;20237;-72
2023/02/16 06:07:04;;;;;;;11.20;9.60;;;3.00;45.50;;;;;;10388778;28;20248;-72
2023/02/16 06:12:07;;;;;;;30.57;9.57;;;3.00;45.40;;;;;;10390718;28;20236;-73
2023/02/16 06:17:12;;;;;;;40.73;10.10;;;2.90;45.60;;;;;;10386537;28;20238;-74
2023/02/16 06:22:15;;;;;;;12.30;7.77;;;2.80;45.90;;;;;;10392341;28;20233;-73
2023/02/16 06:27:18;;;;;;;26.47;9.70;;;2.80;45.90;;;;;;10388166;28;20238;-73
2023/02/16 06:32:23;;;;;;;12.37;8.23;;;2.90;46.80;;;;;;10388943;28;20245;-73
2023/02/16 06:37:26;;;;;;;34.30;10.27;;;2.90;46.20;;;;;;10388096;28;20284;-73
2023/02/16 06:42:29;;;;;;;11.03;8.60;;;2.90;45.80;;;;;;10389171;28;20233;-74
2023/02/16 06:47:34;;;;;;;9.77;8.77;;;2.80;45.70;;;;;;10384819;28;20291;-73
2023/02/16 06:52:37;;;;;;;19.47;9.30;;;2.70;46.00;;;;;;10400375;28;20737;-73
2023/02/16 06:57:40;;;;;;;21.57;9.23;;;2.70;45.80;;;;;;10383919;28;20218;-73
2023/02/16 07:02:45;;;;;;;9.30;8.40;;;2.70;45.90;;;;;;10387174;28;20226;-74
2023/02/16 07:07:48;;;;;;;10.20;8.57;;;2.60;46.00;;;;;;10394333;28;20321;-73
2023/02/16 07:12:51;;;;;;;9.30;7.53;;;2.60;46.00;;;;;;10382385;28;20230;-74
2023/02/16 07:17:56;;;;;;;23.13;9.37;;;2.60;46.20;;;;;;10389424;28;20227;-74
2023/02/16 07:22:59;;;;;;;26.93;9.13;;;2.60;46.10;;;;;;10392023;28;20232;-73
2023/02/16 07:28:02;;;;;;;15.33;8.23;;;2.60;46.00;;;;;;10395937;28;20595;-73
2023/02/16 07:33:07;;;;;;;34.27;10.00;;;2.60;45.90;;;;;;10401660;28;20230;-75
2023/02/16 07:38:10;;;;;;;19.87;9.67;;;2.60;46.30;;;;;;10401588;28;20240;-75
2023/02/16 07:43:13;;;;;;;42.00;9.40;;;2.60;46.60;;;;;;10388837;28;20276;-73
2023/02/16 07:48:18;;;;;;;11.93;8.97;;;2.70;46.60;;;;;;10394220;28;20225;-73
2023/02/16 07:53:21;;;;;;;36.23;10.63;;;2.70;46.70;;;;;;10400597;28;20632;-71
2023/02/16 07:58:27;;;;;;;31.10;9.67;;;2.80;46.40;;;;;;10393242;28;20694;-71
2023/02/16 08:03:32;;;;;;;30.17;9.13;;;2.80;46.60;;;;;;10393904;28;20607;-71
2023/02/16 08:08:36;;;;;;;30.13;9.40;;;2.90;46.80;;;;;;10384223;28;20602;-71
2023/02/16 08:13:39;;;;;;;29.27;10.40;;;2.80;46.70;;;;;;10391218;28;20229;-71
2023/02/16 08:18:45;;;;;;;9.07;8.27;;;2.90;46.80;;;;;;10386504;28;20313;-71
2023/02/16 08:23:53;;;;;;;12.47;9.77;;;3.00;46.90;;;;;;10387105;28;20225;-71
2023/02/16 08:28:58;;;;;;;21.93;10.00;;;3.10;47.00;;;;;;10395010;28;20730;-71
2023/02/16 08:34:04;;;;;;;9.83;8.87;;;3.20;46.30;;;;;;10390288;28;20607;-71
2023/02/16 08:39:11;;;;;;;14.57;9.67;;;3.20;46.30;;;;;;10383343;28;20222;-71
2023/02/16 08:44:16;;;;;;;10.97;10.00;;;3.20;46.40;;;;;;10382637;28;20238;-71
2023/02/16 08:49:22;;;;;;;10.57;9.60;;;3.20;46.40;;;;;;10401969;28;20669;-71
2023/02/16 08:54:29;;;;;;;11.27;10.27;;;3.30;46.50;;;;;;10391611;28;20600;-70
2023/02/16 08:59:33;;;;;;;12.97;10.40;;;3.30;46.60;;;;;;10397787;28;20278;-70
2023/02/16 09:04:38;;;;;;;11.20;9.90;;;3.30;46.50;;;;;;10390016;28;20313;-69
2023/02/16 09:09:41;;;;;;;12.20;11.07;;;3.40;47.20;;;;;;10384357;28;20248;-68
2023/02/16 09:14:44;;;;;;;11.33;9.20;;;3.40;46.90;;;;;;10381989;28;20228;-68
2023/02/16 09:19:49;;;;;;;11.87;10.77;;;3.40;47.00;;;;;;10380424;28;20236;-68
2023/02/16 09:24:52;;;;;;;12.67;11.43;;;3.50;47.20;;;;;;10390805;28;20226;-68
2023/02/16 09:29:57;;;;;;;12.10;11.00;;;3.60;47.40;;;;;;10378456;28;20309;-68
2023/02/16 09:35:02;;;;;;;10.70;9.70;;;3.80;47.60;;;;;;10379111;28;20236;-68
2023/02/16 09:40:06;;;;;;;11.73;10.67;;;3.90;47.70;;;;;;10378710;28;20229;-68
2023/02/16 09:45:12;;;;;;;10.90;9.87;;;4.10;47.80;;;;;;10380434;28;20241;-68
2023/02/16 09:50:20;;;;;;;12.60;11.27;;;4.40;48.10;;;;;;10379877;28;20246;-68
2023/02/16 09:55:56;;;;;;;12.03;10.83;;;4.60;48.20;;;;;;10387332;28;20242;-68
2023/02/16 10:01:07;;;;;;;12.07;10.97;;;4.90;48.50;;;;;;10387928;28;20236;-68
2023/02/16 10:06:29;;;;;;;12.37;11.07;;;5.20;48.50;;;;;;10386321;28;20272;-68
2023/02/16 10:11:40;;;;;;;12.83;11.63;;;5.50;48.40;;;;;;10388200;28;20598;-68
2023/02/16 10:16:50;;;;;;;11.27;10.20;;;5.70;48.00;;;;;;10382025;28;20597;-70
2023/02/16 10:21:59;;;;;;;12.80;11.60;;;6.00;48.60;;;;;;10384177;28;20251;-70
2023/02/16 10:27:07;;;;;;;13.70;12.40;;;6.20;47.80;;;;;;10385178;28;20857;-70
2023/02/16 10:32:27;;;;;;;12.50;11.40;;;6.50;47.60;;;;;;10389742;28;20722;-70
2023/02/16 10:37:54;;;;;;;12.97;11.63;;;6.70;47.80;;;;;;10381563;28;20736;-70
2023/02/16 10:43:06;;;;;;;13.53;12.30;;;7.00;47.60;;;;;;10385263;28;20233;-71
2023/02/16 10:48:09;;;;;;;13.30;12.00;;;7.30;47.80;;;;;;10385034;28;20240;-71
2023/02/16 10:53:19;;;;;;;14.63;13.23;;;7.50;47.80;;;;;;10388145;28;20757;-71
2023/02/16 10:58:25;;;;;;;15.23;13.73;;;7.80;47.40;;;;;;10389058;28;20244;-71
2023/02/16 11:03:32;;;;;;;14.23;12.77;;;8.00;47.60;;;;;;10395034;28;20234;-70
2023/02/16 11:08:48;;;;;;;16.63;14.10;;;8.20;47.50;;;;;;10394749;28;20276;-71
2023/02/16 11:14:00;;;;;;;15.67;14.00;;;8.40;47.30;;;;;;10382718;28;20225;-70
2023/02/16 11:19:06;;;;;;;14.00;12.70;;;8.70;47.50;;;;;;10393376;28;20230;-70
2023/02/16 11:24:14;;;;;;;16.47;14.77;;;8.90;47.80;;;;;;10391485;28;20640;-70
2023/02/16 11:29:19;;;;;;;13.07;11.80;;;9.20;47.90;;;;;;10392842;28;20324;-70
2023/02/16 11:34:31;;;;;;;13.77;12.47;;;9.40;47.50;;;;;;10389113;28;20233;-70
2023/02/16 11:39:38;;;;;;;13.37;12.10;;;9.70;47.20;;;;;;10394745;28;20966;-70
2023/02/16 11:44:48;;;;;;;13.23;12.03;;;9.90;47.10;;;;;;10392163;28;20317;-75
2023/02/16 11:50:08;;;;;;;14.57;13.13;;;10.10;46.00;;;;;;10388195;28;20246;-74
2023/02/16 11:55:21;;;;;;;13.97;12.67;;;10.30;44.80;;;;;;10391456;28;20229;-74
2023/02/16 12:00:26;;;;;;;13.53;12.13;;;10.50;44.60;;;;;;10392345;28;20740;-75
2023/02/16 12:05:40;;;;;;;12.80;11.60;;;10.60;46.20;;;;;;10388517;28;20240;-74
2023/02/16 12:11:00;;;;;;;14.10;12.63;;;10.80;44.50;;;;;;10398560;28;20229;-75
2023/02/16 12:16:24;;;;;;;13.53;12.23;;;10.90;44.10;;;;;;10389023;28;20665;-70
2023/02/16 12:21:35;;;;;;;12.90;11.60;;;11.10;43.90;;;;;;10395932;28;20245;-70
2023/02/16 12:26:48;;;;;;;13.00;11.70;;;11.20;43.50;;;;;;10387036;28;21078;-75
2023/02/16 12:32:14;;;;;;;13.27;11.87;;;11.40;43.90;;;;;;10385847;28;20264;-76
2023/02/16 12:37:25;;;;;;;14.73;13.23;;;11.50;43.30;;;;;;10387915;28;20801;-70
2023/02/16 12:42:47;;;;;;;13.33;11.93;;;11.80;43.90;;;;;;10390745;28;20236;-76
2023/02/16 12:47:54;;;;;;;13.67;11.77;;;11.90;42.60;;;;;;10391371;28;20241;-76
2023/02/16 12:53:04;;;;;;;13.13;11.83;;;12.10;43.70;;;;;;10384185;28;20709;-75
2023/02/16 12:58:18;;;;;;;13.87;12.47;;;12.20;43.20;;;;;;10385670;28;20241;-75
2023/02/16 13:03:27;;;;;;;13.57;12.27;;;12.40;42.00;;;;;;10391834;28;20228;-75
2023/02/16 13:08:37;;;;;;;12.70;11.43;;;12.50;42.40;;;;;;10386177;28;20228;-75
2023/02/16 13:13:46;;;;;;;13.90;12.50;;;12.60;42.20;;;;;;10386575;28;20240;-75
2023/02/16 13:18:51;;;;;;;13.17;11.87;;;12.80;42.40;;;;;;10391423;28;20236;-75
2023/02/16 13:24:04;;;;;;;12.67;11.47;;;13.00;43.30;;;;;;10387217;28;20224;-76
2023/02/16 13:29:46;;;;;;;12.17;11.00;;;13.10;40.90;;;;;;10384080;28;20754;-75
2023/02/16 13:35:16;;;;;;;14.77;13.20;;;13.20;40.70;;;;;;10378210;28;20601;-76
2023/02/16 13:40:42;;;;;;;15.47;13.97;;;13.30;40.60;;;;;;10383986;28;20223;-75
2023/02/16 13:45:52;;;;;;;15.93;14.23;;;13.30;40.90;;;;;;10387376;28;20248;-76
2023/02/16 13:50:58;;;;;;;16.03;14.63;;;13.20;41.30;;;;;;10392797;28;20229;-76
2023/02/16 13:56:22;;;;;;;15.53;14.13;;;13.20;41.60;;;;;;10389016;28;20653;-76
2023/02/16 14:01:39;;;;;;;16.13;14.43;;;13.10;40.70;;;;;;10384670;28;20222;-75
2023/02/16 14:06:42;;;;;;;15.13;13.73;;;13.10;40.80;;;;;;10385286;28;20229;-75
2023/02/16 14:12:02;;;;;;;15.53;14.03;;;13.00;42.00;;;;;;10381328;28;20398;-76
2023/02/16 14:17:23;;;;;;;16.20;14.70;;;13.00;40.90;;;;;;10391246;28;20448;-75
2023/02/16 14:22:34;;;;;;;15.37;13.87;;;13.00;40.60;;;;;;10379365;28;20242;-75
2023/02/16 14:27:45;;;;;;;16.13;14.63;;;13.00;40.70;;;;;;10388773;28;20237;-75
2023/02/16 14:32:56;;;;;;;14.93;13.60;;;13.00;40.90;;;;;;10391564;28;20233;-75
2023/02/16 14:38:01;;;;;;;14.33;12.93;;;13.00;41.10;;;;;;10396000;28;20241;-76
2023/02/16 14:43:11;;;;;;;15.13;13.63;;;13.10;41.60;;;;;;10393786;28;20589;-75
2023/02/16 14:49:00;;;;;;;15.87;14.33;;;13.10;41.30;;;;;;10403021;28;20234;-76
2023/02/16 14:54:27;;;;;;;16.33;14.83;;;13.10;40.60;;;;;;10265633;28;20335;-75
2023/02/16 14:59:35;;;;;;;16.50;14.90;;;13.10;40.60;;;;;;10374588;28;20244;-76
2023/02/16 15:04:39;;;;;;;16.10;14.53;;;13.10;41.40;;;;;;10398822;28;20225;-76
2023/02/16 15:09:43;;;;;;;16.47;14.93;;;13.10;41.40;;;;;;10391323;28;20590;-75
2023/02/16 15:14:49;;;;;;;15.43;13.87;;;13.10;42.00;;;;;;10397965;28;20237;-76
2023/02/16 15:19:55;;;;;;;16.60;15.00;;;13.10;41.80;;;;;;10394520;28;20226;-75
2023/02/16 15:25:00;;;;;;;17.33;15.53;;;13.10;41.60;;;;;;10392429;28;20795;-74
2023/02/16 15:30:22;;;;;;;16.10;14.60;;;13.20;41.80;;;;;;10391995;28;20244;-73
2023/02/16 15:35:32;;;;;;;17.57;15.93;;;13.20;41.20;;;;;;10394644;28;20242;-74
2023/02/16 15:40:36;;;;;;;16.83;15.07;;;13.20;41.10;;;;;;10397521;28;20783;-74
2023/02/16 15:45:39;;;;;;;16.00;14.50;;;13.30;41.40;;;;;;10393535;28;20611;-74
2023/02/16 15:50:45;;;;;;;16.90;15.30;;;13.30;41.50;;;;;;10392710;28;20241;-73
2023/02/16 15:55:49;;;;;;;16.17;14.60;;;13.20;40.80;;;;;;10391444;28;20245;-72
2023/02/16 16:00:54;;;;;;;16.60;14.90;;;13.20;41.50;;;;;;10393274;28;20237;-72
2023/02/16 16:06:03;;;;;;;16.50;14.83;;;13.20;41.20;;;;;;10385910;28;20230;-73
2023/02/16 16:11:08;;;;;;;18.20;16.30;;;13.20;40.30;;;;;;10388765;28;20225;-73
2023/02/16 16:16:15;;;;;;;20.93;17.73;;;13.20;40.90;;;;;;10389707;28;20238;-72
2023/02/16 16:21:24;;;;;;;16.83;15.03;;;13.10;40.60;;;;;;10378314;28;20234;-72
2023/02/16 16:26:29;;;;;;;17.73;14.93;;;13.00;39.90;;;;;;10392273;28;20249;-72
2023/02/16 16:31:39;;;;;;;15.30;13.80;;;12.90;40.30;;;;;;10385714;28;20244;-73
2023/02/16 16:36:53;;;;;;;15.20;13.80;;;12.80;40.20;;;;;;10387025;28;20233;-72
2023/02/16 16:42:23;;;;;;;23.13;17.77;;;12.80;39.70;;;;;;10390314;28;20222;-73
2023/02/16 16:47:31;;;;;;;21.33;16.83;;;12.70;39.50;;;;;;10391408;28;20238;-73
2023/02/16 16:52:40;;;;;;;26.77;19.53;;;12.60;40.10;;;;;;10384509;28;20233;-73
2023/02/16 16:57:43;;;;;;;21.80;16.80;;;12.50;40.00;;;;;;10382191;28;20229;-73
2023/02/16 17:02:46;;;;;;;17.87;15.17;;;12.40;40.40;;;;;;10389364;28;20233;-74
2023/02/16 17:07:52;;;;;;;13.87;12.23;;;12.30;40.60;;;;;;10386095;28;20233;-73
2023/02/16 17:12:58;;;;;;;13.80;12.40;;;12.30;40.10;;;;;;10388363;28;20238;-73
2023/02/16 17:18:02;;;;;;;14.50;12.20;;;12.20;39.80;;;;;;10385092;28;20234;-73
2023/02/16 17:23:06;;;;;;;18.83;15.17;;;12.00;40.10;;;;;;10387054;28;20712;-73
2023/02/16 17:28:11;;;;;;;17.70;15.03;;;11.90;40.00;;;;;;10385183;28;20233;-73
2023/02/16 17:33:14;;;;;;;20.70;17.83;;;11.80;40.00;;;;;;10388023;28;20238;-73
2023/02/16 17:38:21;;;;;;;25.43;22.67;;;11.70;40.30;;;;;;10389401;28;20242;-73
2023/02/16 17:43:26;;;;;;;22.57;20.13;;;11.60;39.80;;;;;;10391114;28;20240;-74
2023/02/16 17:48:29;;;;;;;26.23;21.60;;;11.50;40.20;;;;;;10391858;28;20238;-73
2023/02/16 17:53:34;;;;;;;23.70;20.33;;;11.50;40.30;;;;;;10392012;28;20240;-73
2023/02/16 17:58:38;;;;;;;24.63;20.40;;;11.40;40.20;;;;;;10388821;28;20710;-71
2023/02/16 18:03:41;;;;;;;22.10;19.27;;;11.40;40.30;;;;;;10383011;28;20232;-71
2023/02/16 18:08:46;;;;;;;27.33;24.17;;;11.30;40.60;;;;;;10388397;28;20237;-71
2023/02/16 18:13:49;;;;;;;28.53;23.23;;;11.30;40.20;;;;;;10387446;28;20234;-69
2023/02/16 18:18:53;;;;;;;24.47;21.00;;;11.20;40.50;;;;;;10379327;28;20236;-70
2023/02/16 18:23:57;;;;;;;24.00;21.40;;;11.10;40.60;;;;;;10386620;28;20226;-70
2023/02/16 18:29:00;;;;;;;33.67;27.87;;;11.10;40.50;;;;;;10390375;28;20645;-70
2023/02/16 18:34:04;;;;;;;35.83;30.33;;;11.00;40.80;;;;;;10389431;28;20245;-70
2023/02/16 18:39:09;;;;;;;23.40;20.93;;;10.90;40.70;;;;;;10389420;28;20245;-70
2023/02/16 18:44:12;;;;;;;22.17;19.20;;;10.90;40.70;;;;;;10387520;28;20233;-70
2023/02/16 18:49:15;;;;;;;19.40;17.50;;;10.90;40.70;;;;;;10385977;28;20241;-70
2023/02/16 18:54:20;;;;;;;17.07;15.33;;;10.80;40.60;;;;;;10384004;28;20313;-70
2023/02/16 18:59:23;;;;;;;20.80;17.70;;;10.80;40.60;;;;;;10389002;28;20233;-69
2023/02/16 19:04:26;;;;;;;18.03;15.87;;;10.80;40.60;;;;;;10391798;28;20237;-70
2023/02/16 19:09:31;;;;;;;19.63;15.47;;;10.70;40.50;;;;;;10387505;28;20230;-71
2023/02/16 19:14:34;;;;;;;20.00;15.57;;;10.70;40.50;;;;;;10384213;28;20237;-70
2023/02/16 19:19:37;;;;;;;24.70;19.00;;;10.60;40.50;;;;;;10396545;28;20225;-70
2023/02/16 19:24:42;;;;;;;17.57;15.77;;;10.60;40.70;;;;;;10391044;28;20226;-70
2023/02/16 19:29:46;;;;;;;16.90;15.07;;;10.60;40.50;;;;;;10395736;28;20600;-69
2023/02/16 19:34:49;;;;;;;21.53;17.27;;;10.60;40.80;;;;;;10400007;28;20240;-70
2023/02/16 19:39:53;;;;;;;24.67;17.97;;;10.50;41.50;;;;;;10400884;28;20227;-72
2023/02/16 19:44:57;;;;;;;20.83;17.83;;;10.50;40.70;;;;;;10397050;28;20240;-72
2023/02/16 19:50:03;;;;;;;21.33;17.97;;;10.50;40.90;;;;;;10399242;28;20730;-72
2023/02/16 19:55:07;;;;;;;17.97;16.07;;;10.50;40.90;;;;;;10390025;28;20230;-71
2023/02/16 20:00:14;;;;;;;16.47;14.70;;;10.50;40.90;;;;;;10393252;28;20230;-69
2023/02/16 20:05:19;;;;;;;15.67;14.07;;;10.50;40.70;;;;;;10393353;28;20253;-72
2023/02/16 20:10:23;;;;;;;15.60;14.00;;;10.40;40.80;;;;;;10385839;28;20242;-73
2023/02/16 20:15:27;;;;;;;15.83;14.27;;;10.40;40.70;;;;;;10390550;28;20240;-72
2023/02/16 20:20:30;;;;;;;15.00;13.47;;;10.40;40.80;;;;;;10397852;28;20233;-70
2023/02/16 20:25:38;;;;;;;17.27;14.50;;;10.40;41.70;;;;;;10386897;28;20229;-69
2023/02/16 20:30:42;;;;;;;15.33;13.60;;;10.30;40.70;;;;;;10398175;28;20583;-70
2023/02/16 20:35:45;;;;;;;14.90;13.30;;;10.30;40.90;;;;;;10395887;28;20240;-71
2023/02/16 20:40:50;;;;;;;18.73;13.57;;;10.30;41.10;;;;;;10391191;28;20229;-72
2023/02/16 20:45:53;;;;;;;14.30;12.80;;;10.30;40.90;;;;;;10405413;28;20712;-70
2023/02/16 20:50:58;;;;;;;15.97;14.10;;;10.30;41.10;;;;;;10387596;28;20241;-70
2023/02/16 20:56:05;;;;;;;32.07;19.93;;;10.30;41.00;;;;;;10386649;28;20439;-70
2023/02/16 21:01:12;;;;;;;25.60;18.47;;;10.30;40.90;;;;;;10390731;28;20236;-70
2023/02/16 21:06:16;;;;;;;17.30;15.03;;;10.30;40.90;;;;;;10388237;28;20248;-70
2023/02/16 21:11:21;;;;;;;17.10;14.83;;;10.30;41.00;;;;;;10384110;28;20234;-72
2023/02/16 21:16:25;;;;;;;15.80;13.73;;;10.30;41.10;;;;;;10385985;28;20269;-72
2023/02/16 21:21:28;;;;;;;17.03;13.87;;;10.30;41.10;;;;;;10385568;28;20256;-72
2023/02/16 21:26:33;;;;;;;20.07;15.03;;;10.30;41.10;;;;;;10379246;28;20237;-72
2023/02/16 21:31:36;;;;;;;20.47;14.73;;;10.20;41.00;;;;;;10383914;28;20244;-72
2023/02/16 21:36:39;;;;;;;23.17;17.97;;;10.20;41.10;;;;;;10385982;28;20269;-70
2023/02/16 21:41:44;;;;;;;19.93;16.30;;;10.20;41.10;;;;;;10381210;28;20225;-70
2023/02/16 21:46:47;;;;;;;19.80;14.77;;;10.20;41.00;;;;;;10385947;28;20225;-69
2023/02/16 21:51:51;;;;;;;15.83;14.00;;;10.10;41.10;;;;;;10383214;28;20737;-69
2023/02/16 21:56:55;;;;;;;15.40;13.80;;;10.10;41.20;;;;;;10390988;28;20726;-72
2023/02/16 22:01:59;;;;;;;16.80;13.00;;;10.10;41.30;;;;;;10382549;28;20234;-70
2023/02/16 22:07:02;;;;;;;19.77;14.70;;;10.10;41.20;;;;;;10386399;28;20237;-70
2023/02/16 22:12:06;;;;;;;19.50;14.27;;;10.10;41.30;;;;;;10386383;28;20279;-70
2023/02/16 22:17:09;;;;;;;17.67;14.43;;;10.00;41.10;;;;;;10396624;28;20240;-69
2023/02/16 22:22:13;;;;;;;25.00;17.57;;;10.00;41.20;;;;;;10394485;28;20252;-72
2023/02/16 22:27:17;;;;;;;15.97;13.17;;;10.00;41.20;;;;;;10395809;28;20257;-72
2023/02/16 22:32:20;;;;;;;15.87;13.37;;;10.00;41.00;;;;;;10388198;28;20607;-70
2023/02/16 22:37:24;;;;;;;16.43;13.07;;;10.00;41.20;;;;;;10384915;28;20717;-70
2023/02/16 22:42:30;;;;;;;13.87;12.30;;;10.00;41.20;;;;;;10391197;28;20237;-70
2023/02/16 22:47:33;;;;;;;15.57;12.90;;;10.00;41.20;;;;;;10390258;28;20238;-72
2023/02/16 22:52:37;;;;;;;18.97;15.47;;;10.00;41.30;;;;;;10385244;28;20234;-72
2023/02/16 22:57:41;;;;;;;18.90;17.00;;;10.00;41.30;;;;;;10392366;28;20237;-72
2023/02/16 23:02:44;;;;;;;19.50;17.40;;;9.90;42.10;;;;;;10405099;28;20739;-70
2023/02/16 23:07:48;;;;;;;21.53;19.23;;;9.90;42.00;;;;;;10397850;28;20348;-70
2023/02/16 23:12:52;;;;;;;22.20;20.03;;;9.90;42.00;;;;;;10395120;28;20234;-70
2023/02/16 23:17:55;;;;;;;21.33;19.13;;;9.80;42.70;;;;;;10392475;28;20232;-70
2023/02/16 23:22:58;;;;;;;20.40;18.27;;;9.80;42.10;;;;;;10394285;28;20234;-70
2023/02/16 23:28:04;;;;;;;20.87;18.77;;;9.70;42.10;;;;;;10391973;28;20252;-71
2023/02/16 23:33:07;;;;;;;21.87;19.63;;;9.70;42.60;;;;;;10393530;28;20234;-72
2023/02/16 23:38:13;;;;;;;19.13;17.20;;;9.70;42.30;;;;;;10416263;28;20248;-69
2023/02/16 23:43:18;;;;;;;13.20;11.67;;;9.60;42.40;;;;;;10411480;28;20280;-69
2023/02/16 23:48:21;;;;;;;12.27;10.97;;;9.60;42.30;;;;;;10415336;28;20234;-69
2023/02/16 23:53:26;;;;;;;12.00;10.37;;;9.60;42.50;;;;;;10413150;28;20237;-69
2023/02/16 23:58:33;;;;;;;11.43;9.50;;;9.70;42.40;;;;;;10403904;28;20589;-69
